sensor_id;sensor_type;location;lat;lon;timestamp;temperature;humidity
62809;DHT22;48848;39.002;-94.584;2023-08-06T00:01:20;21.20;53.10
62809;DHT22;48848;39.002;-94.584;2023-08-06T00:03:48;21.30;53.20
62809;DHT22;48848;39.002;-94.584;2023-08-06T00:06:14;21.20;53.10
62809;DHT22;48848;39.002;-94.584;2023-08-06T00:08:39;21.30;53.00
62809;DHT22;48848;39.002;-94.584;2023-08-06T00:11:05;21.30;52.90
62809;DHT22;48848;39.002;-94.584;2023-08-06T00:13:31;21.30;52.80
62809;DHT22;48848;39.002;-94.584;2023-08-06T00:16:18;21.30;52.80
62809;DHT22;48848;39.002;-94.584;2023-08-06T00:18:43;21.30;52.70
62809;DHT22;48848;39.002;-94.584;2023-08-06T00:21:09;21.30;52.60
62809;DHT22;48848;39.002;-94.584;2023-08-06T00:23:35;21.30;52.50
62809;DHT22;48848;39.002;-94.584;2023-08-06T00:26:01;21.30;52.50
62809;DHT22;48848;39.002;-94.584;2023-08-06T00:28:26;21.30;52.30
62809;DHT22;48848;39.002;-94.584;2023-08-06T00:30:53;21.30;55.40
62809;DHT22;48848;39.002;-94.584;2023-08-06T00:33:19;21.30;53.80
62809;DHT22;48848;39.002;-94.584;2023-08-06T00:35:45;21.40;53.20
62809;DHT22;48848;39.002;-94.584;2023-08-06T00:38:12;21.30;53.00
62809;DHT22;48848;39.002;-94.584;2023-08-06T00:40:38;21.40;52.90
62809;DHT22;48848;39.002;-94.584;2023-08-06T00:43:03;21.30;52.80
62809;DHT22;48848;39.002;-94.584;2023-08-06T00:45:29;21.30;52.30
62809;DHT22;48848;39.002;-94.584;2023-08-06T00:47:55;21.30;52.40
62809;DHT22;48848;39.002;-94.584;2023-08-06T00:50:21;21.20;52.10
62809;DHT22;48848;39.002;-94.584;2023-08-06T00:52:48;21.20;52.10
62809;DHT22;48848;39.002;-94.584;2023-08-06T00:55:14;21.20;52.10
62809;DHT22;48848;39.002;-94.584;2023-08-06T00:57:41;21.10;52.10
62809;DHT22;48848;39.002;-94.584;2023-08-06T01:00:07;21.10;52.00
62809;DHT22;48848;39.002;-94.584;2023-08-06T01:02:33;21.10;52.10
62809;DHT22;48848;39.002;-94.584;2023-08-06T01:04:58;21.10;52.10
62809;DHT22;48848;39.002;-94.584;2023-08-06T01:09:57;21.10;52.00
62809;DHT22;48848;39.002;-94.584;2023-08-06T01:12:30;21.10;52.00
62809;DHT22;48848;39.002;-94.584;2023-08-06T01:15:04;21.00;51.90
62809;DHT22;48848;39.002;-94.584;2023-08-06T01:17:31;21.00;51.90
62809;DHT22;48848;39.002;-94.584;2023-08-06T01:19:57;21.00;51.90
62809;DHT22;48848;39.002;-94.584;2023-08-06T01:22:23;21.00;51.90
62809;DHT22;48848;39.002;-94.584;2023-08-06T01:24:49;21.00;51.90
62809;DHT22;48848;39.002;-94.584;2023-08-06T01:30:01;20.90;51.80
62809;DHT22;48848;39.002;-94.584;2023-08-06T01:32:28;20.90;51.80
62809;DHT22;48848;39.002;-94.584;2023-08-06T01:34:55;20.90;51.90
62809;DHT22;48848;39.002;-94.584;2023-08-06T01:37:21;20.90;51.90
62809;DHT22;48848;39.002;-94.584;2023-08-06T01:39:47;20.90;51.80
62809;DHT22;48848;39.002;-94.584;2023-08-06T01:42:12;20.90;51.80
62809;DHT22;48848;39.002;-94.584;2023-08-06T01:44:38;20.90;51.80
62809;DHT22;48848;39.002;-94.584;2023-08-06T01:47:04;20.90;51.80
62809;DHT22;48848;39.002;-94.584;2023-08-06T01:52:33;20.80;51.60
62809;DHT22;48848;39.002;-94.584;2023-08-06T01:55:00;20.80;51.60
62809;DHT22;48848;39.002;-94.584;2023-08-06T01:57:25;20.80;51.70
62809;DHT22;48848;39.002;-94.584;2023-08-06T01:59:51;20.80;51.70
62809;DHT22;48848;39.002;-94.584;2023-08-06T02:02:17;20.80;51.70
62809;DHT22;48848;39.002;-94.584;2023-08-06T02:04:43;20.80;51.60
62809;DHT22;48848;39.002;-94.584;2023-08-06T02:07:09;20.80;51.70
62809;DHT22;48848;39.002;-94.584;2023-08-06T02:09:35;20.80;51.70
62809;DHT22;48848;39.002;-94.584;2023-08-06T02:12:00;20.70;51.60
62809;DHT22;48848;39.002;-94.584;2023-08-06T02:14:27;20.70;51.60
62809;DHT22;48848;39.002;-94.584;2023-08-06T02:16:53;20.70;51.60
62809;DHT22;48848;39.002;-94.584;2023-08-06T02:19:19;20.70;51.50
62809;DHT22;48848;39.002;-94.584;2023-08-06T02:21:45;20.70;51.50
62809;DHT22;48848;39.002;-94.584;2023-08-06T02:24:11;20.70;51.60
62809;DHT22;48848;39.002;-94.584;2023-08-06T02:26:37;20.70;51.60
62809;DHT22;48848;39.002;-94.584;2023-08-06T02:29:02;20.60;51.60
62809;DHT22;48848;39.002;-94.584;2023-08-06T02:31:28;20.70;51.60
62809;DHT22;48848;39.002;-94.584;2023-08-06T02:33:54;20.60;51.70
62809;DHT22;48848;39.002;-94.584;2023-08-06T02:36:20;20.70;52.60
62809;DHT22;48848;39.002;-94.584;2023-08-06T02:38:46;20.80;53.30
62809;DHT22;48848;39.002;-94.584;2023-08-06T02:41:12;20.90;52.90
62809;DHT22;48848;39.002;-94.584;2023-08-06T02:43:38;20.80;52.20
62809;DHT22;48848;39.002;-94.584;2023-08-06T02:46:04;20.80;52.20
62809;DHT22;48848;39.002;-94.584;2023-08-06T02:48:29;20.80;52.60
62809;DHT22;48848;39.002;-94.584;2023-08-06T02:50:58;20.70;52.10
62809;DHT22;48848;39.002;-94.584;2023-08-06T02:53:24;20.70;52.00
62809;DHT22;48848;39.002;-94.584;2023-08-06T02:55:50;20.60;51.90
62809;DHT22;48848;39.002;-94.584;2023-08-06T02:58:17;20.60;52.00
62809;DHT22;48848;39.002;-94.584;2023-08-06T03:00:58;20.50;51.90
62809;DHT22;48848;39.002;-94.584;2023-08-06T03:03:24;20.50;51.90
62809;DHT22;48848;39.002;-94.584;2023-08-06T03:05:53;20.40;51.90
62809;DHT22;48848;39.002;-94.584;2023-08-06T03:08:19;20.40;52.00
62809;DHT22;48848;39.002;-94.584;2023-08-06T03:10:48;20.40;52.00
62809;DHT22;48848;39.002;-94.584;2023-08-06T03:13:15;20.30;51.90
62809;DHT22;48848;39.002;-94.584;2023-08-06T03:15:41;20.30;52.10
62809;DHT22;48848;39.002;-94.584;2023-08-06T03:18:07;20.30;52.20
62809;DHT22;48848;39.002;-94.584;2023-08-06T03:20:32;20.20;52.10
62809;DHT22;48848;39.002;-94.584;2023-08-06T03:22:58;20.20;52.20
62809;DHT22;48848;39.002;-94.584;2023-08-06T03:25:24;20.20;52.30
62809;DHT22;48848;39.002;-94.584;2023-08-06T03:27:50;20.10;52.20
62809;DHT22;48848;39.002;-94.584;2023-08-06T03:30:16;20.10;52.20
62809;DHT22;48848;39.002;-94.584;2023-08-06T03:32:42;20.10;52.20
62809;DHT22;48848;39.002;-94.584;2023-08-06T03:35:07;20.10;52.30
62809;DHT22;48848;39.002;-94.584;2023-08-06T03:37:33;20.10;52.30
62809;DHT22;48848;39.002;-94.584;2023-08-06T03:39:59;20.10;52.30
62809;DHT22;48848;39.002;-94.584;2023-08-06T03:42:25;20.10;52.20
62809;DHT22;48848;39.002;-94.584;2023-08-06T03:44:51;20.10;52.10
62809;DHT22;48848;39.002;-94.584;2023-08-06T03:47:17;20.10;52.00
62809;DHT22;48848;39.002;-94.584;2023-08-06T03:49:42;20.10;52.10
62809;DHT22;48848;39.002;-94.584;2023-08-06T03:52:08;20.10;52.00
62809;DHT22;48848;39.002;-94.584;2023-08-06T03:54:34;20.10;52.00
62809;DHT22;48848;39.002;-94.584;2023-08-06T03:57:00;20.10;52.00
62809;DHT22;48848;39.002;-94.584;2023-08-06T03:59:26;20.00;52.20
62809;DHT22;48848;39.002;-94.584;2023-08-06T04:01:52;20.00;52.40
62809;DHT22;48848;39.002;-94.584;2023-08-06T04:04:18;20.00;52.40
62809;DHT22;48848;39.002;-94.584;2023-08-06T04:06:44;20.00;52.10
62809;DHT22;48848;39.002;-94.584;2023-08-06T04:09:10;20.00;52.00
62809;DHT22;48848;39.002;-94.584;2023-08-06T04:11:35;20.00;52.00
62809;DHT22;48848;39.002;-94.584;2023-08-06T04:14:01;20.00;52.00
62809;DHT22;48848;39.002;-94.584;2023-08-06T04:16:27;20.00;52.90
62809;DHT22;48848;39.002;-94.584;2023-08-06T04:18:54;20.00;52.20
62809;DHT22;48848;39.002;-94.584;2023-08-06T04:21:20;20.10;56.30
62809;DHT22;48848;39.002;-94.584;2023-08-06T04:23:46;20.20;57.90
62809;DHT22;48848;39.002;-94.584;2023-08-06T04:26:12;20.30;57.10
62809;DHT22;48848;39.002;-94.584;2023-08-06T04:28:38;20.30;56.30
62809;DHT22;48848;39.002;-94.584;2023-08-06T04:31:04;20.40;55.80
62809;DHT22;48848;39.002;-94.584;2023-08-06T04:33:30;20.50;55.70
62809;DHT22;48848;39.002;-94.584;2023-08-06T04:35:56;20.60;55.70
62809;DHT22;48848;39.002;-94.584;2023-08-06T04:38:23;20.70;55.50
62809;DHT22;48848;39.002;-94.584;2023-08-06T04:40:49;20.70;55.20
62809;DHT22;48848;39.002;-94.584;2023-08-06T04:43:15;20.70;54.90
62809;DHT22;48848;39.002;-94.584;2023-08-06T04:45:47;20.70;53.30
62809;DHT22;48848;39.002;-94.584;2023-08-06T04:48:13;20.70;53.00
62809;DHT22;48848;39.002;-94.584;2023-08-06T04:50:42;20.60;52.70
62809;DHT22;48848;39.002;-94.584;2023-08-06T04:53:08;20.60;52.60
62809;DHT22;48848;39.002;-94.584;2023-08-06T04:55:34;20.50;52.50
62809;DHT22;48848;39.002;-94.584;2023-08-06T04:58:00;20.50;52.40
62809;DHT22;48848;39.002;-94.584;2023-08-06T05:00:26;20.50;52.60
62809;DHT22;48848;39.002;-94.584;2023-08-06T05:02:52;20.40;52.70
62809;DHT22;48848;39.002;-94.584;2023-08-06T05:05:17;20.40;52.90
62809;DHT22;48848;39.002;-94.584;2023-08-06T05:07:45;20.40;53.10
62809;DHT22;48848;39.002;-94.584;2023-08-06T05:10:10;20.40;53.10
62809;DHT22;48848;39.002;-94.584;2023-08-06T05:12:36;20.40;53.00
62809;DHT22;48848;39.002;-94.584;2023-08-06T05:15:02;20.30;53.00
62809;DHT22;48848;39.002;-94.584;2023-08-06T05:17:28;20.30;53.00
62809;DHT22;48848;39.002;-94.584;2023-08-06T05:19:54;20.30;52.90
62809;DHT22;48848;39.002;-94.584;2023-08-06T05:22:20;20.30;52.90
62809;DHT22;48848;39.002;-94.584;2023-08-06T05:24:46;20.30;52.90
62809;DHT22;48848;39.002;-94.584;2023-08-06T05:27:11;20.20;52.70
62809;DHT22;48848;39.002;-94.584;2023-08-06T05:29:37;20.20;52.70
62809;DHT22;48848;39.002;-94.584;2023-08-06T05:32:03;20.20;52.70
62809;DHT22;48848;39.002;-94.584;2023-08-06T05:34:29;20.20;53.10
62809;DHT22;48848;39.002;-94.584;2023-08-06T05:36:55;20.30;53.80
62809;DHT22;48848;39.002;-94.584;2023-08-06T05:39:21;20.30;54.10
62809;DHT22;48848;39.002;-94.584;2023-08-06T05:41:47;20.40;54.10
62809;DHT22;48848;39.002;-94.584;2023-08-06T05:44:12;20.50;55.00
62809;DHT22;48848;39.002;-94.584;2023-08-06T05:46:38;20.50;54.00
62809;DHT22;48848;39.002;-94.584;2023-08-06T05:49:04;20.60;54.00
62809;DHT22;48848;39.002;-94.584;2023-08-06T05:51:30;20.70;54.00
62809;DHT22;48848;39.002;-94.584;2023-08-06T05:53:56;20.70;54.00
62809;DHT22;48848;39.002;-94.584;2023-08-06T05:56:22;20.80;54.10
62809;DHT22;48848;39.002;-94.584;2023-08-06T05:58:48;20.90;54.20
62809;DHT22;48848;39.002;-94.584;2023-08-06T06:01:15;20.90;54.10
62809;DHT22;48848;39.002;-94.584;2023-08-06T06:03:42;21.00;54.20
62809;DHT22;48848;39.002;-94.584;2023-08-06T06:06:08;21.00;54.20
62809;DHT22;48848;39.002;-94.584;2023-08-06T06:08:33;21.00;53.50
62809;DHT22;48848;39.002;-94.584;2023-08-06T06:10:59;21.00;52.70
62809;DHT22;48848;39.002;-94.584;2023-08-06T06:13:25;20.90;52.30
62809;DHT22;48848;39.002;-94.584;2023-08-06T06:15:53;20.90;52.10
62809;DHT22;48848;39.002;-94.584;2023-08-06T06:18:19;20.80;52.00
62809;DHT22;48848;39.002;-94.584;2023-08-06T06:20:45;20.80;52.00
62809;DHT22;48848;39.002;-94.584;2023-08-06T06:23:11;20.70;51.80
62809;DHT22;48848;39.002;-94.584;2023-08-06T06:25:41;20.70;51.80
62809;DHT22;48848;39.002;-94.584;2023-08-06T06:28:07;20.60;51.70
62809;DHT22;48848;39.002;-94.584;2023-08-06T06:30:33;20.60;51.60
62809;DHT22;48848;39.002;-94.584;2023-08-06T06:32:58;20.50;51.60
62809;DHT22;48848;39.002;-94.584;2023-08-06T06:35:24;20.50;52.50
62809;DHT22;48848;39.002;-94.584;2023-08-06T06:37:50;20.60;53.10
62809;DHT22;48848;39.002;-94.584;2023-08-06T06:40:16;20.70;53.30
62809;DHT22;48848;39.002;-94.584;2023-08-06T06:42:42;20.70;53.10
62809;DHT22;48848;39.002;-94.584;2023-08-06T06:45:08;20.80;53.10
62809;DHT22;48848;39.002;-94.584;2023-08-06T06:47:34;20.80;53.10
62809;DHT22;48848;39.002;-94.584;2023-08-06T06:50:00;20.90;53.20
62809;DHT22;48848;39.002;-94.584;2023-08-06T06:52:26;20.90;53.20
62809;DHT22;48848;39.002;-94.584;2023-08-06T06:54:51;21.00;53.30
62809;DHT22;48848;39.002;-94.584;2023-08-06T06:57:17;21.00;53.30
62809;DHT22;48848;39.002;-94.584;2023-08-06T06:59:43;21.10;53.30
62809;DHT22;48848;39.002;-94.584;2023-08-06T07:02:09;21.10;53.30
62809;DHT22;48848;39.002;-94.584;2023-08-06T07:04:35;21.20;53.40
62809;DHT22;48848;39.002;-94.584;2023-08-06T07:07:01;21.20;53.40
62809;DHT22;48848;39.002;-94.584;2023-08-06T07:09:26;21.20;53.50
62809;DHT22;48848;39.002;-94.584;2023-08-06T07:11:52;21.30;53.70
62809;DHT22;48848;39.002;-94.584;2023-08-06T07:14:18;21.30;55.10
62809;DHT22;48848;39.002;-94.584;2023-08-06T07:16:44;21.40;54.70
62809;DHT22;48848;39.002;-94.584;2023-08-06T07:19:10;21.40;55.20
62809;DHT22;48848;39.002;-94.584;2023-08-06T07:21:36;21.50;55.20
62809;DHT22;48848;39.002;-94.584;2023-08-06T07:24:02;21.50;55.00
62809;DHT22;48848;39.002;-94.584;2023-08-06T07:26:28;21.60;55.20
62809;DHT22;48848;39.002;-94.584;2023-08-06T07:28:53;21.60;55.00
62809;DHT22;48848;39.002;-94.584;2023-08-06T07:31:19;21.60;55.00
62809;DHT22;48848;39.002;-94.584;2023-08-06T07:33:45;21.70;55.00
62809;DHT22;48848;39.002;-94.584;2023-08-06T07:36:11;21.60;53.90
62809;DHT22;48848;39.002;-94.584;2023-08-06T07:38:38;21.60;52.90
62809;DHT22;48848;39.002;-94.584;2023-08-06T07:41:04;21.50;52.60
62809;DHT22;48848;39.002;-94.584;2023-08-06T07:43:30;21.40;52.30
62809;DHT22;48848;39.002;-94.584;2023-08-06T07:45:59;21.30;52.00
62809;DHT22;48848;39.002;-94.584;2023-08-06T07:48:26;21.20;51.60
62809;DHT22;48848;39.002;-94.584;2023-08-06T07:50:52;21.20;51.60
62809;DHT22;48848;39.002;-94.584;2023-08-06T07:53:20;21.10;51.40
62809;DHT22;48848;39.002;-94.584;2023-08-06T07:55:49;21.00;51.20
62809;DHT22;48848;39.002;-94.584;2023-08-06T07:58:16;21.00;51.10
62809;DHT22;48848;39.002;-94.584;2023-08-06T08:00:41;20.90;51.00
62809;DHT22;48848;39.002;-94.584;2023-08-06T08:03:14;20.90;50.90
62809;DHT22;48848;39.002;-94.584;2023-08-06T08:05:40;20.80;50.80
62809;DHT22;48848;39.002;-94.584;2023-08-06T08:08:06;20.80;51.30
62809;DHT22;48848;39.002;-94.584;2023-08-06T08:10:32;20.80;52.60
62809;DHT22;48848;39.002;-94.584;2023-08-06T08:12:58;20.90;52.80
62809;DHT22;48848;39.002;-94.584;2023-08-06T08:15:24;20.90;52.80
62809;DHT22;48848;39.002;-94.584;2023-08-06T08:17:52;21.00;52.90
62809;DHT22;48848;39.002;-94.584;2023-08-06T08:20:17;21.10;52.90
62809;DHT22;48848;39.002;-94.584;2023-08-06T08:22:43;21.10;52.90
62809;DHT22;48848;39.002;-94.584;2023-08-06T08:25:09;21.10;52.90
62809;DHT22;48848;39.002;-94.584;2023-08-06T08:27:35;21.20;53.10
62809;DHT22;48848;39.002;-94.584;2023-08-06T08:30:01;21.20;53.20
62809;DHT22;48848;39.002;-94.584;2023-08-06T08:32:27;21.30;53.30
62809;DHT22;48848;39.002;-94.584;2023-08-06T08:34:52;21.40;53.30
62809;DHT22;48848;39.002;-94.584;2023-08-06T08:37:18;21.40;53.30
62809;DHT22;48848;39.002;-94.584;2023-08-06T08:39:44;21.40;53.30
62809;DHT22;48848;39.002;-94.584;2023-08-06T08:42:10;21.50;53.30
62809;DHT22;48848;39.002;-94.584;2023-08-06T08:44:36;21.50;53.30
62809;DHT22;48848;39.002;-94.584;2023-08-06T08:47:07;21.50;53.30
62809;DHT22;48848;39.002;-94.584;2023-08-06T08:49:36;21.60;53.30
62809;DHT22;48848;39.002;-94.584;2023-08-06T08:52:03;21.60;53.40
62809;DHT22;48848;39.002;-94.584;2023-08-06T08:54:32;21.60;53.40
62809;DHT22;48848;39.002;-94.584;2023-08-06T08:56:58;21.60;53.40
62809;DHT22;48848;39.002;-94.584;2023-08-06T08:59:24;21.70;53.50
62809;DHT22;48848;39.002;-94.584;2023-08-06T09:01:50;21.70;53.50
62809;DHT22;48848;39.002;-94.584;2023-08-06T09:04:17;21.70;53.50
62809;DHT22;48848;39.002;-94.584;2023-08-06T09:06:43;21.80;53.50
62809;DHT22;48848;39.002;-94.584;2023-08-06T09:09:11;21.80;53.50
62809;DHT22;48848;39.002;-94.584;2023-08-06T09:11:42;21.80;53.60
62809;DHT22;48848;39.002;-94.584;2023-08-06T09:14:08;21.90;53.80
62809;DHT22;48848;39.002;-94.584;2023-08-06T09:16:35;21.90;53.70
62809;DHT22;48848;39.002;-94.584;2023-08-06T09:19:08;21.90;53.60
62809;DHT22;48848;39.002;-94.584;2023-08-06T09:21:35;21.90;53.70
62809;DHT22;48848;39.002;-94.584;2023-08-06T09:24:03;22.00;53.70
62809;DHT22;48848;39.002;-94.584;2023-08-06T09:26:36;22.00;53.80
62809;DHT22;48848;39.002;-94.584;2023-08-06T09:29:01;22.00;53.80
62809;DHT22;48848;39.002;-94.584;2023-08-06T09:31:32;22.00;53.20
62809;DHT22;48848;39.002;-94.584;2023-08-06T09:33:59;22.00;51.70
62809;DHT22;48848;39.002;-94.584;2023-08-06T09:36:26;21.80;50.90
62809;DHT22;48848;39.002;-94.584;2023-08-06T09:38:52;21.80;50.60
62809;DHT22;48848;39.002;-94.584;2023-08-06T09:41:27;21.60;50.30
62809;DHT22;48848;39.002;-94.584;2023-08-06T09:43:56;21.60;50.30
62809;DHT22;48848;39.002;-94.584;2023-08-06T09:46:22;21.50;50.20
62809;DHT22;48848;39.002;-94.584;2023-08-06T09:48:48;21.40;50.00
62809;DHT22;48848;39.002;-94.584;2023-08-06T09:51:14;21.30;50.00
62809;DHT22;48848;39.002;-94.584;2023-08-06T09:53:41;21.20;49.90
62809;DHT22;48848;39.002;-94.584;2023-08-06T09:56:07;21.20;49.90
62809;DHT22;48848;39.002;-94.584;2023-08-06T09:58:35;21.10;50.50
62809;DHT22;48848;39.002;-94.584;2023-08-06T10:01:02;21.20;51.80
62809;DHT22;48848;39.002;-94.584;2023-08-06T10:03:28;21.20;52.00
62809;DHT22;48848;39.002;-94.584;2023-08-06T10:05:55;21.30;51.90
62809;DHT22;48848;39.002;-94.584;2023-08-06T10:08:22;21.40;51.90
62809;DHT22;48848;39.002;-94.584;2023-08-06T10:10:48;21.30;51.80
62809;DHT22;48848;39.002;-94.584;2023-08-06T10:13:14;21.40;51.90
62809;DHT22;48848;39.002;-94.584;2023-08-06T10:15:40;21.40;51.90
62809;DHT22;48848;39.002;-94.584;2023-08-06T10:18:06;21.50;51.90
62809;DHT22;48848;39.002;-94.584;2023-08-06T10:20:33;21.50;52.10
62809;DHT22;48848;39.002;-94.584;2023-08-06T10:23:00;21.50;52.10
62809;DHT22;48848;39.002;-94.584;2023-08-06T10:25:26;21.60;52.20
62809;DHT22;48848;39.002;-94.584;2023-08-06T10:27:55;21.60;52.20
62809;DHT22;48848;39.002;-94.584;2023-08-06T10:32:51;21.70;52.20
62809;DHT22;48848;39.002;-94.584;2023-08-06T10:38:19;21.70;52.30
62809;DHT22;48848;39.002;-94.584;2023-08-06T10:46:22;21.80;52.40
62809;DHT22;48848;39.002;-94.584;2023-08-06T10:48:48;21.80;52.50
62809;DHT22;48848;39.002;-94.584;2023-08-06T10:51:14;21.90;52.60
62809;DHT22;48848;39.002;-94.584;2023-08-06T10:53:47;21.90;52.60
62809;DHT22;48848;39.002;-94.584;2023-08-06T10:58:39;22.00;52.80
62809;DHT22;48848;39.002;-94.584;2023-08-06T11:01:05;22.00;53.10
62809;DHT22;48848;39.002;-94.584;2023-08-06T11:03:32;22.00;53.40
62809;DHT22;48848;39.002;-94.584;2023-08-06T11:05:58;22.00;54.00
62809;DHT22;48848;39.002;-94.584;2023-08-06T11:08:27;22.10;54.40
62809;DHT22;48848;39.002;-94.584;2023-08-06T11:10:53;22.10;54.50
62809;DHT22;48848;39.002;-94.584;2023-08-06T11:13:22;22.10;54.10
62809;DHT22;48848;39.002;-94.584;2023-08-06T11:15:48;22.10;52.90
62809;DHT22;48848;39.002;-94.584;2023-08-06T11:18:14;22.00;52.20
62809;DHT22;48848;39.002;-94.584;2023-08-06T11:20:40;21.90;52.00
62809;DHT22;48848;39.002;-94.584;2023-08-06T11:23:06;21.80;51.40
62809;DHT22;48848;39.002;-94.584;2023-08-06T11:25:36;21.70;51.00
62809;DHT22;48848;39.002;-94.584;2023-08-06T11:28:02;21.60;50.60
62809;DHT22;48848;39.002;-94.584;2023-08-06T11:30:28;21.50;50.50
62809;DHT22;48848;39.002;-94.584;2023-08-06T11:32:53;21.40;50.30
62809;DHT22;48848;39.002;-94.584;2023-08-06T11:35:19;21.30;50.10
62809;DHT22;48848;39.002;-94.584;2023-08-06T11:37:45;21.30;50.00
62809;DHT22;48848;39.002;-94.584;2023-08-06T11:40:13;21.20;50.20
62809;DHT22;48848;39.002;-94.584;2023-08-06T11:42:40;21.20;51.50
62809;DHT22;48848;39.002;-94.584;2023-08-06T11:45:06;21.20;52.20
62809;DHT22;48848;39.002;-94.584;2023-08-06T11:47:34;21.30;52.20
62809;DHT22;48848;39.002;-94.584;2023-08-06T11:50:00;21.30;52.70
62809;DHT22;48848;39.002;-94.584;2023-08-06T11:52:25;21.40;53.00
62809;DHT22;48848;39.002;-94.584;2023-08-06T11:55:09;21.40;53.10
62809;DHT22;48848;39.002;-94.584;2023-08-06T11:57:43;21.50;53.50
62809;DHT22;48848;39.002;-94.584;2023-08-06T12:00:11;21.50;53.50
62809;DHT22;48848;39.002;-94.584;2023-08-06T12:02:40;21.60;53.40
62809;DHT22;48848;39.002;-94.584;2023-08-06T12:07:40;21.70;53.80
62809;DHT22;48848;39.002;-94.584;2023-08-06T12:10:07;21.70;53.50
62809;DHT22;48848;39.002;-94.584;2023-08-06T12:12:33;21.70;52.10
62809;DHT22;48848;39.002;-94.584;2023-08-06T12:14:59;21.60;51.70
62809;DHT22;48848;39.002;-94.584;2023-08-06T12:17:25;21.50;51.20
62809;DHT22;48848;39.002;-94.584;2023-08-06T12:19:51;21.40;51.00
62809;DHT22;48848;39.002;-94.584;2023-08-06T12:22:17;21.30;50.60
62809;DHT22;48848;39.002;-94.584;2023-08-06T12:24:44;21.20;50.50
62809;DHT22;48848;39.002;-94.584;2023-08-06T12:27:10;21.10;50.50
62809;DHT22;48848;39.002;-94.584;2023-08-06T12:29:47;21.10;51.80
62809;DHT22;48848;39.002;-94.584;2023-08-06T12:32:13;21.10;52.30
62809;DHT22;48848;39.002;-94.584;2023-08-06T12:34:39;21.20;52.60
62809;DHT22;48848;39.002;-94.584;2023-08-06T12:37:06;21.20;52.60
62809;DHT22;48848;39.002;-94.584;2023-08-06T12:39:35;21.30;52.80
62809;DHT22;48848;39.002;-94.584;2023-08-06T12:42:01;21.30;52.80
62809;DHT22;48848;39.002;-94.584;2023-08-06T12:44:27;21.40;53.00
62809;DHT22;48848;39.002;-94.584;2023-08-06T12:46:53;21.40;52.80
62809;DHT22;48848;39.002;-94.584;2023-08-06T12:49:20;21.50;52.90
62809;DHT22;48848;39.002;-94.584;2023-08-06T12:51:48;21.60;53.40
62809;DHT22;48848;39.002;-94.584;2023-08-06T12:54:16;21.60;53.70
62809;DHT22;48848;39.002;-94.584;2023-08-06T12:56:42;21.60;54.10
62809;DHT22;48848;39.002;-94.584;2023-08-06T12:59:08;21.60;54.40
62809;DHT22;48848;39.002;-94.584;2023-08-06T13:01:33;21.70;54.50
62809;DHT22;48848;39.002;-94.584;2023-08-06T13:03:59;21.70;54.50
62809;DHT22;48848;39.002;-94.584;2023-08-06T13:06:25;21.70;54.50
62809;DHT22;48848;39.002;-94.584;2023-08-06T13:08:51;21.80;54.40
62809;DHT22;48848;39.002;-94.584;2023-08-06T13:11:17;21.80;54.50
62809;DHT22;48848;39.002;-94.584;2023-08-06T13:13:44;21.80;54.50
62809;DHT22;48848;39.002;-94.584;2023-08-06T13:16:10;21.90;54.60
62809;DHT22;48848;39.002;-94.584;2023-08-06T13:18:36;21.90;54.60
62809;DHT22;48848;39.002;-94.584;2023-08-06T13:21:02;21.90;54.60
62809;DHT22;48848;39.002;-94.584;2023-08-06T13:23:27;21.90;54.60
62809;DHT22;48848;39.002;-94.584;2023-08-06T13:25:53;22.00;54.70
62809;DHT22;48848;39.002;-94.584;2023-08-06T13:28:19;22.00;55.10
62809;DHT22;48848;39.002;-94.584;2023-08-06T13:30:45;22.00;55.40
62809;DHT22;48848;39.002;-94.584;2023-08-06T13:33:11;22.00;55.40
62809;DHT22;48848;39.002;-94.584;2023-08-06T13:35:37;22.10;55.30
62809;DHT22;48848;39.002;-94.584;2023-08-06T13:38:03;22.10;55.30
62809;DHT22;48848;39.002;-94.584;2023-08-06T13:40:33;22.10;55.30
62809;DHT22;48848;39.002;-94.584;2023-08-06T13:42:59;22.10;55.40
62809;DHT22;48848;39.002;-94.584;2023-08-06T13:45:25;22.10;55.40
62809;DHT22;48848;39.002;-94.584;2023-08-06T13:47:51;22.20;55.70
62809;DHT22;48848;39.002;-94.584;2023-08-06T13:50:17;22.20;55.80
62809;DHT22;48848;39.002;-94.584;2023-08-06T13:52:43;22.20;55.80
62809;DHT22;48848;39.002;-94.584;2023-08-06T13:55:09;22.20;55.90
62809;DHT22;48848;39.002;-94.584;2023-08-06T13:57:35;22.30;56.10
62809;DHT22;48848;39.002;-94.584;2023-08-06T14:00:01;22.30;56.40
62809;DHT22;48848;39.002;-94.584;2023-08-06T14:02:27;22.30;56.60
62809;DHT22;48848;39.002;-94.584;2023-08-06T14:04:53;22.30;56.60
62809;DHT22;48848;39.002;-94.584;2023-08-06T14:07:19;22.30;57.60
62809;DHT22;48848;39.002;-94.584;2023-08-06T14:09:45;22.30;56.70
62809;DHT22;48848;39.002;-94.584;2023-08-06T14:12:12;22.40;56.90
62809;DHT22;48848;39.002;-94.584;2023-08-06T14:14:39;22.40;57.10
62809;DHT22;48848;39.002;-94.584;2023-08-06T14:17:05;22.40;57.10
62809;DHT22;48848;39.002;-94.584;2023-08-06T14:19:31;22.40;57.30
62809;DHT22;48848;39.002;-94.584;2023-08-06T14:21:56;22.40;57.50
62809;DHT22;48848;39.002;-94.584;2023-08-06T14:24:22;22.40;57.60
62809;DHT22;48848;39.002;-94.584;2023-08-06T14:26:48;22.50;57.70
62809;DHT22;48848;39.002;-94.584;2023-08-06T14:29:14;22.50;57.80
62809;DHT22;48848;39.002;-94.584;2023-08-06T14:31:40;22.50;58.00
62809;DHT22;48848;39.002;-94.584;2023-08-06T14:34:06;22.50;58.10
62809;DHT22;48848;39.002;-94.584;2023-08-06T14:36:32;22.50;59.10
62809;DHT22;48848;39.002;-94.584;2023-08-06T14:38:58;22.60;58.30
62809;DHT22;48848;39.002;-94.584;2023-08-06T14:41:24;22.60;58.30
62809;DHT22;48848;39.002;-94.584;2023-08-06T14:43:50;22.60;58.50
62809;DHT22;48848;39.002;-94.584;2023-08-06T14:46:16;22.60;58.60
62809;DHT22;48848;39.002;-94.584;2023-08-06T14:48:42;22.60;58.70
62809;DHT22;48848;39.002;-94.584;2023-08-06T14:51:08;22.70;59.20
62809;DHT22;48848;39.002;-94.584;2023-08-06T14:53:34;22.70;59.70
62809;DHT22;48848;39.002;-94.584;2023-08-06T14:56:00;22.70;60.10
62809;DHT22;48848;39.002;-94.584;2023-08-06T14:58:26;22.70;60.20
62809;DHT22;48848;39.002;-94.584;2023-08-06T15:00:52;22.80;60.30
62809;DHT22;48848;39.002;-94.584;2023-08-06T15:03:18;22.80;60.40
62809;DHT22;48848;39.002;-94.584;2023-08-06T15:05:46;22.80;60.50
62809;DHT22;48848;39.002;-94.584;2023-08-06T15:08:12;22.80;60.70
62809;DHT22;48848;39.002;-94.584;2023-08-06T15:10:38;22.90;61.50
62809;DHT22;48848;39.002;-94.584;2023-08-06T15:13:04;22.80;61.90
62809;DHT22;48848;39.002;-94.584;2023-08-06T15:15:30;22.90;62.10
62809;DHT22;48848;39.002;-94.584;2023-08-06T15:17:56;22.90;62.30
62809;DHT22;48848;39.002;-94.584;2023-08-06T15:20:23;22.90;62.30
62809;DHT22;48848;39.002;-94.584;2023-08-06T15:22:49;23.00;62.90